Time;durP1;ratioP1;P1;durP2;ratioP2;P2;SDS_P1;SDS_P2;PMS_P1;PMS_P2;Temp;Humidity;BMP_temperature;BMP_pressure;BME280_temperature;BME280_humidity;BME280_pressure;Samples;Min_cycle;Max_cycle;Signal;HPM_P1;HPM_P2
2023/05/10 00:00:27;;;;;;;14.57;8.95;;;13.00;99.90;;;;;;4975581;28;20047;-78
2023/05/10 00:02:53;;;;;;;12.63;7.97;;;13.00;99.90;;;;;;4958024;28;20069;-75
2023/05/10 00:05:18;;;;;;;16.20;8.95;;;13.00;99.90;;;;;;4974378;28;20184;-75
2023/05/10 00:07:44;;;;;;;14.15;8.77;;;13.00;99.90;;;;;;4974272;28;20058;-75
2023/05/10 00:10:11;;;;;;;16.33;8.82;;;13.00;99.90;;;;;;4942074;28;20136;-79
2023/05/10 00:12:37;;;;;;;18.52;8.98;;;13.00;99.90;;;;;;4974146;28;20061;-76
2023/05/10 00:15:03;;;;;;;15.93;9.38;;;13.00;99.90;;;;;;4974943;28;20046;-76
2023/05/10 00:17:29;;;;;;;16.90;9.37;;;13.00;99.90;;;;;;4973849;28;20054;-76
2023/05/10 00:19:55;;;;;;;18.55;9.70;;;13.00;99.90;;;;;;4957596;28;20058;-77
2023/05/10 00:22:21;;;;;;;17.80;9.98;;;13.00;99.90;;;;;;4974044;28;20049;-78
2023/05/10 00:24:47;;;;;;;19.45;10.38;;;13.00;99.90;;;;;;4973907;28;20511;-76
2023/05/10 00:27:12;;;;;;;15.27;8.98;;;13.00;99.90;;;;;;4957651;28;20059;-80
2023/05/10 00:29:38;;;;;;;16.48;9.90;;;13.00;99.90;;;;;;4975081;28;20082;-78
2023/05/10 00:32:04;;;;;;;17.73;10.20;;;13.00;99.90;;;;;;4941795;28;20137;-76
2023/05/10 00:34:30;;;;;;;17.00;10.35;;;13.00;99.90;;;;;;4973702;28;20059;-75
2023/05/10 00:36:56;;;;;;;17.90;10.30;;;13.00;99.90;;;;;;4940682;28;20047;-79
2023/05/10 00:39:21;;;;;;;18.40;10.05;;;13.00;99.90;;;;;;4957986;28;20061;-79
2023/05/10 00:41:47;;;;;;;17.23;9.50;;;13.00;99.90;;;;;;4973870;28;20046;-75
2023/05/10 00:44:13;;;;;;;15.55;9.27;;;13.00;99.90;;;;;;4957355;28;20051;-77
2023/05/10 00:46:39;;;;;;;18.38;9.20;;;13.00;99.90;;;;;;4973828;28;20054;-74
2023/05/10 00:49:05;;;;;;;15.52;9.18;;;13.00;99.90;;;;;;4973934;28;20404;-78
2023/05/10 00:51:31;;;;;;;16.65;9.75;;;13.00;99.90;;;;;;4973706;28;20043;-78
2023/05/10 00:53:58;;;;;;;18.00;10.10;;;13.00;99.90;;;;;;4940802;28;20108;-76
2023/05/10 00:56:25;;;;;;;18.70;10.18;;;13.00;99.90;;;;;;4957170;28;20146;-78
2023/05/10 00:58:51;;;;;;;16.80;9.40;;;13.00;99.90;;;;;;4974710;28;20391;-77
2023/05/10 01:01:17;;;;;;;17.83;9.68;;;13.00;99.90;;;;;;4972985;28;20047;-76
2023/05/10 01:03:43;;;;;;;15.13;8.90;;;13.00;99.90;;;;;;4974459;28;20054;-77
2023/05/10 01:06:09;;;;;;;16.33;9.20;;;13.00;99.90;;;;;;4973916;28;20043;-77
2023/05/10 01:08:36;;;;;;;14.18;7.55;;;13.00;99.90;;;;;;4974286;28;20281;-78
2023/05/10 01:11:02;;;;;;;15.55;8.77;;;12.90;99.90;;;;;;4972731;28;20113;-78
2023/05/10 01:13:39;;;;;;;14.97;8.43;;;13.00;99.90;;;;;;4973020;28;20046;-76
2023/05/10 01:16:06;;;;;;;14.60;8.55;;;13.00;99.90;;;;;;4973720;28;20778;-78
2023/05/10 01:18:38;;;;;;;;;;;12.90;99.90;;;;;;4957445;28;20090;-78
2023/05/10 01:21:27;;;;;;;13.48;7.03;;;13.00;99.90;;;;;;4973791;28;19922;-76
2023/05/10 01:24:09;;;;;;;13.32;7.45;;;12.90;99.90;;;;;;4974290;28;20059;-78
2023/05/10 01:26:53;;;;;;;13.73;7.88;;;12.90;99.90;;;;;;4972837;28;20138;-79
2023/05/10 01:29:43;;;;;;;12.93;7.50;;;12.90;99.90;;;;;;4973439;28;20051;-77
2023/05/10 01:32:18;;;;;;;12.65;6.88;;;12.90;99.90;;;;;;4972100;28;20193;-80
2023/05/10 01:35:05;;;;;;;13.23;7.03;;;12.90;99.90;;;;;;4973227;28;20141;-76
2023/05/10 01:37:45;;;;;;;13.60;6.45;;;12.90;99.90;;;;;;4972549;28;20126;-79
2023/05/10 01:40:18;;;;;;;10.55;6.63;;;12.90;99.90;;;;;;4973583;28;20058;-76
2023/05/10 01:42:51;;;;;;;14.05;7.28;;;12.90;99.90;;;;;;4956464;28;20522;-76
2023/05/10 01:45:45;;;;;;;13.18;7.10;;;12.90;99.90;;;;;;4973502;28;20046;-78
2023/05/10 01:48:12;;;;;;;11.20;6.57;;;12.80;99.90;;;;;;4973014;28;20047;-81
2023/05/10 01:50:43;;;;;;;13.38;6.72;;;12.80;99.90;;;;;;4961186;28;20094;-79
2023/05/10 01:53:12;;;;;;;10.80;6.15;;;12.90;99.90;;;;;;4976635;28;20039;-79
2023/05/10 01:55:45;;;;;;;11.23;6.40;;;12.90;99.90;;;;;;4976478;28;20535;-79
2023/05/10 01:58:15;;;;;;;11.27;5.93;;;12.90;99.90;;;;;;4977263;28;20051;-76
2023/05/10 02:00:44;;;;;;;10.52;5.72;;;12.90;99.90;;;;;;4977424;28;20042;-78
2023/05/10 02:03:11;;;;;;;11.73;5.72;;;12.90;99.90;;;;;;4977508;28;20070;-79
2023/05/10 02:05:39;;;;;;;9.43;5.40;;;12.90;99.90;;;;;;4977921;28;20133;-78
2023/05/10 02:08:09;;;;;;;11.93;5.97;;;12.90;99.90;;;;;;4976693;28;20073;-80
2023/05/10 02:10:36;;;;;;;12.48;6.07;;;12.90;99.90;;;;;;4960390;28;20186;-79
2023/05/10 02:13:03;;;;;;;11.60;5.90;;;12.90;99.90;;;;;;4944328;28;20043;-76
2023/05/10 02:15:30;;;;;;;9.55;5.50;;;12.90;99.90;;;;;;4976744;28;20058;-76
2023/05/10 02:17:59;;;;;;;13.38;6.15;;;12.90;99.90;;;;;;4976947;28;20061;-77
2023/05/10 02:20:26;;;;;;;10.02;5.28;;;12.90;99.90;;;;;;4977913;28;20148;-76
2023/05/10 02:22:55;;;;;;;10.40;5.70;;;12.90;99.90;;;;;;4978254;28;20039;-76
2023/05/10 02:25:23;;;;;;;10.35;5.63;;;12.90;99.90;;;;;;4977890;28;20043;-77
2023/05/10 02:27:49;;;;;;;12.38;5.43;;;12.90;99.90;;;;;;4976865;28;20483;-76
2023/05/10 02:30:16;;;;;;;13.00;5.55;;;12.90;99.90;;;;;;4976551;28;20059;-77
2023/05/10 02:32:42;;;;;;;10.18;5.10;;;12.90;99.90;;;;;;4978612;28;20473;-77
2023/05/10 02:35:10;;;;;;;9.15;5.15;;;12.90;99.90;;;;;;4961530;28;20065;-78
2023/05/10 02:37:38;;;;;;;9.45;4.90;;;12.90;99.90;;;;;;4977332;28;20479;-80
2023/05/10 02:40:06;;;;;;;8.20;4.90;;;12.90;99.90;;;;;;4977839;28;20133;-79
2023/05/10 02:42:36;;;;;;;9.38;5.18;;;12.90;99.90;;;;;;4977269;28;20055;-80
2023/05/10 02:45:05;;;;;;;9.20;4.93;;;12.90;99.90;;;;;;4978079;28;20085;-80
2023/05/10 02:47:31;;;;;;;8.75;4.57;;;12.90;99.90;;;;;;4978282;28;20479;-80
2023/05/10 02:49:57;;;;;;;7.75;4.13;;;12.90;99.90;;;;;;4976510;28;20153;-80
2023/05/10 02:52:39;;;;;;;9.43;4.95;;;12.80;99.90;;;;;;4977172;28;20050;-79
2023/05/10 02:55:09;;;;;;;9.13;4.10;;;12.90;99.90;;;;;;4980765;28;20141;-82
2023/05/10 03:02:45;;;;;;;9.25;4.30;;;12.80;99.90;;;;;;5221335;23;20054;-76
2023/05/10 03:05:11;;;;;;;7.97;4.38;;;12.80;99.90;;;;;;4979556;28;20405;-80
2023/05/10 03:07:37;;;;;;;8.13;4.70;;;12.90;99.90;;;;;;4979649;28;20121;-81
2023/05/10 03:10:04;;;;;;;9.93;4.80;;;12.90;99.90;;;;;;4997521;28;20046;-80
2023/05/10 03:12:45;;;;;;;9.38;4.30;;;12.90;99.90;;;;;;4998744;28;20121;-81
2023/05/10 03:15:23;;;;;;;10.48;4.90;;;12.90;99.90;;;;;;4982732;28;20141;-80
2023/05/10 03:18:07;;;;;;;7.82;4.43;;;12.90;99.90;;;;;;4997700;28;20054;-81
2023/05/10 03:20:41;;;;;;;8.25;4.47;;;12.80;99.90;;;;;;4979867;28;20057;-82
2023/05/10 03:23:51;;;;;;;8.15;4.63;;;12.80;99.90;;;;;;4997438;28;20046;-83
2023/05/10 03:26:21;;;;;;;9.40;4.70;;;12.90;99.90;;;;;;4920924;29;20140;-80
2023/05/10 03:28:48;;;;;;;9.70;4.82;;;12.90;99.90;;;;;;4992010;28;20144;-79
2023/05/10 03:31:14;;;;;;;7.57;3.75;;;12.80;99.90;;;;;;4997471;28;20112;-81
2023/05/10 03:33:50;;;;;;;8.85;5.13;;;12.80;99.90;;;;;;4980249;28;20050;-79
2023/05/10 03:36:16;;;;;;;12.03;5.07;;;12.80;99.90;;;;;;4979103;28;20077;-77
2023/05/10 03:38:42;;;;;;;9.98;5.10;;;12.80;99.90;;;;;;4978902;28;20477;-80
2023/05/10 03:41:08;;;;;;;11.15;5.22;;;12.80;99.90;;;;;;4996141;28;20100;-78
2023/05/10 03:43:34;;;;;;;9.98;5.10;;;12.80;99.90;;;;;;4978709;28;20125;-79
2023/05/10 03:46:05;;;;;;;12.23;5.38;;;12.80;99.90;;;;;;4996652;28;20082;-77
2023/05/10 03:48:32;;;;;;;9.68;5.22;;;12.80;99.90;;;;;;4980433;28;20053;-77
2023/05/10 03:50:57;;;;;;;;;;;12.80;99.90;;;;;;4997076;28;20093;-77
2023/05/10 03:53:23;;;;;;;8.40;4.30;;;12.80;99.90;;;;;;4996093;28;19926;-78
2023/05/10 03:55:49;;;;;;;11.07;5.57;;;12.80;99.90;;;;;;4979098;28;20474;-77
2023/05/10 03:58:15;;;;;;;10.40;5.78;;;12.80;99.90;;;;;;4947155;28;20053;-81
2023/05/10 04:00:45;;;;;;;10.93;5.82;;;12.90;99.90;;;;;;4978619;28;20066;-86
2023/05/10 04:03:11;;;;;;;12.55;6.32;;;12.80;99.90;;;;;;4978642;28;20120;-80
2023/05/10 04:05:37;;;;;;;10.75;5.47;;;12.80;99.90;;;;;;4996689;28;20174;-77
2023/05/10 04:08:03;;;;;;;13.10;6.25;;;12.80;99.90;;;;;;4996159;28;20086;-76
2023/05/10 04:10:29;;;;;;;11.55;6.10;;;12.80;99.90;;;;;;4996762;28;20042;-77
2023/05/10 04:12:55;;;;;;;11.40;5.78;;;12.80;99.90;;;;;;4962306;28;20485;-76
2023/05/10 04:15:21;;;;;;;9.70;5.50;;;12.80;99.90;;;;;;4995821;28;20050;-78
2023/05/10 04:17:47;;;;;;;10.65;5.50;;;12.80;99.90;;;;;;4995960;28;20049;-78
2023/05/10 04:20:13;;;;;;;11.60;5.82;;;12.80;99.90;;;;;;4978283;28;20565;-77
2023/05/10 04:22:39;;;;;;;9.98;5.55;;;12.80;99.90;;;;;;4995708;28;20521;-82
2023/05/10 04:25:05;;;;;;;10.32;4.97;;;12.80;99.90;;;;;;4962713;28;20050;-76
2023/05/10 04:27:31;;;;;;;10.15;5.00;;;12.80;99.90;;;;;;4978657;28;20053;-75
2023/05/10 04:29:57;;;;;;;10.38;5.03;;;12.80;99.90;;;;;;4995587;28;20042;-82
2023/05/10 04:32:23;;;;;;;10.88;5.30;;;12.80;99.90;;;;;;4997504;28;20086;-80
2023/05/10 04:34:50;;;;;;;9.27;4.82;;;12.80;99.90;;;;;;4996337;28;20046;-81
2023/05/10 04:37:16;;;;;;;;;;;12.80;99.90;;;;;;4997733;28;20049;-83
2023/05/10 04:39:41;;;;;;;15.67;5.67;;;12.80;99.90;;;;;;4963639;28;19926;-74
2023/05/10 04:42:07;;;;;;;10.68;5.15;;;12.80;99.90;;;;;;4995736;28;20050;-81
2023/05/10 04:44:33;;;;;;;9.65;4.85;;;12.80;99.90;;;;;;4978599;28;20054;-78
2023/05/10 04:46:59;;;;;;;10.95;5.10;;;12.80;99.90;;;;;;4978387;28;20050;-80
2023/05/10 04:49:24;;;;;;;9.38;4.82;;;12.80;99.90;;;;;;4977849;28;20046;-77
2023/05/10 04:51:50;;;;;;;8.52;4.47;;;12.80;99.90;;;;;;4978585;28;20047;-85
2023/05/10 04:54:16;;;;;;;9.93;4.80;;;12.80;99.90;;;;;;4962937;28;20058;-82
2023/05/10 04:56:42;;;;;;;10.25;4.38;;;12.80;99.90;;;;;;4978565;28;20112;-83
2023/05/10 04:59:08;;;;;;;10.13;4.35;;;12.80;99.90;;;;;;4995940;28;20101;-78
2023/05/10 05:01:34;;;;;;;9.95;4.60;;;12.80;99.90;;;;;;4995910;28;20062;-78
2023/05/10 05:04:00;;;;;;;10.73;5.38;;;12.80;99.90;;;;;;4996419;28;20054;-79
2023/05/10 05:06:27;;;;;;;9.40;4.28;;;12.80;99.90;;;;;;4996007;28;20489;-78
2023/05/10 05:08:52;;;;;;;12.85;4.35;;;12.80;99.90;;;;;;4978075;28;20050;-78
2023/05/10 05:11:21;;;;;;;10.45;4.45;;;12.80;99.90;;;;;;4962971;28;20050;-80
2023/05/10 05:13:47;;;;;;;10.25;4.93;;;12.80;99.90;;;;;;4979516;28;20150;-79
2023/05/10 05:16:13;;;;;;;10.00;3.88;;;12.80;99.90;;;;;;4978763;28;20077;-80
2023/05/10 05:18:39;;;;;;;9.55;4.60;;;12.80;99.90;;;;;;4994618;28;20042;-82
2023/05/10 05:21:17;;;;;;;10.95;4.20;;;12.80;99.90;;;;;;4961445;28;20054;-80
2023/05/10 05:23:43;;;;;;;9.18;4.40;;;12.90;99.90;;;;;;4995850;28;20050;-79
2023/05/10 05:26:09;;;;;;;11.95;4.32;;;12.90;99.90;;;;;;4995501;28;20043;-80
2023/05/10 05:28:37;;;;;;;8.88;4.22;;;12.90;99.90;;;;;;4994378;28;20061;-80
2023/05/10 05:31:07;;;;;;;9.00;4.35;;;12.90;99.90;;;;;;4994815;28;20057;-84
2023/05/10 05:33:33;;;;;;;9.48;4.68;;;13.00;99.90;;;;;;4995020;28;20144;-76
2023/05/10 05:36:03;;;;;;;8.80;4.47;;;13.00;99.90;;;;;;4977736;28;20486;-81
2023/05/10 05:38:29;;;;;;;10.95;4.57;;;13.00;99.90;;;;;;4961699;28;20796;-78
2023/05/10 05:40:55;;;;;;;12.02;5.18;;;13.00;99.90;;;;;;4994816;28;20056;-82
2023/05/10 05:43:20;;;;;;;10.90;4.75;;;13.10;99.90;;;;;;4962291;28;20082;-80
2023/05/10 05:45:46;;;;;;;11.85;5.30;;;13.00;99.90;;;;;;4994756;28;20046;-82
2023/05/10 05:48:12;;;;;;;11.38;4.63;;;13.10;99.90;;;;;;4994587;28;20066;-78
2023/05/10 05:50:37;;;;;;;11.43;5.30;;;13.10;99.90;;;;;;4977340;28;20125;-79
2023/05/10 05:53:03;;;;;;;12.40;5.13;;;13.20;99.90;;;;;;4994527;28;20046;-82
2023/05/10 05:55:31;;;;;;;10.90;5.80;;;13.30;99.90;;;;;;4994511;28;20042;-78
2023/05/10 05:57:57;;;;;;;12.00;5.15;;;13.30;99.90;;;;;;4995759;28;20092;-83
2023/05/10 06:00:23;;;;;;;12.60;6.03;;;13.30;99.90;;;;;;4961553;28;20100;-82
2023/05/10 06:02:49;;;;;;;11.50;5.32;;;13.40;99.90;;;;;;4994760;28;20144;-82
2023/05/10 06:05:15;;;;;;;11.52;5.30;;;13.40;99.90;;;;;;4961335;28;20375;-77
2023/05/10 06:07:42;;;;;;;14.37;5.20;;;13.40;99.90;;;;;;4978120;28;20062;-81
2023/05/10 06:10:09;;;;;;;15.60;5.22;;;13.50;99.90;;;;;;4961442;28;20050;-80
2023/05/10 06:12:35;;;;;;;12.57;5.55;;;13.50;99.90;;;;;;4976762;28;20125;-80
2023/05/10 06:15:00;;;;;;;15.18;6.18;;;13.40;99.90;;;;;;4977399;28;20606;-80
2023/05/10 06:17:27;;;;;;;14.40;5.88;;;13.40;99.90;;;;;;4978684;28;20067;-78
2023/05/10 06:19:53;;;;;;;12.57;5.35;;;13.40;99.90;;;;;;4995509;28;20054;-83
2023/05/10 06:22:18;;;;;;;11.70;5.35;;;13.40;99.90;;;;;;4979340;28;20137;-84
2023/05/10 06:24:44;;;;;;;13.32;5.00;;;13.50;99.90;;;;;;4995212;28;20125;-80
2023/05/10 06:27:10;;;;;;;11.07;5.03;;;13.70;99.90;;;;;;4977107;28;20137;-82
2023/05/10 06:29:35;;;;;;;12.95;5.03;;;14.00;99.90;;;;;;4963244;28;20089;-82
2023/05/10 06:32:02;;;;;;;10.38;4.53;;;14.20;99.90;;;;;;4977811;28;20054;-80
2023/05/10 06:34:27;;;;;;;14.10;5.20;;;14.40;99.90;;;;;;4995996;28;20594;-82
2023/05/10 06:36:53;;;;;;;13.02;5.35;;;14.50;99.90;;;;;;4998498;28;20082;-80
2023/05/10 06:39:19;;;;;;;10.35;4.82;;;14.50;99.90;;;;;;4967539;28;20058;-84
2023/05/10 06:41:45;;;;;;;14.52;5.70;;;14.50;99.90;;;;;;4965231;28;20046;-81
2023/05/10 06:44:11;;;;;;;9.38;4.57;;;14.60;99.90;;;;;;4997692;28;20054;-81
2023/05/10 06:46:36;;;;;;;10.55;4.82;;;14.70;99.90;;;;;;4998290;28;20129;-81
2023/05/10 06:49:02;;;;;;;12.90;4.90;;;14.70;99.90;;;;;;4980418;28;20042;-82
2023/05/10 06:51:28;;;;;;;10.20;4.35;;;14.60;99.90;;;;;;4980239;28;20053;-83
2023/05/10 06:53:54;;;;;;;10.63;4.32;;;14.70;99.90;;;;;;4997982;28;20042;-83
2023/05/10 06:56:21;;;;;;;15.45;4.70;;;14.60;99.90;;;;;;4965850;28;20085;-86
2023/05/10 06:58:47;;;;;;;9.80;4.50;;;14.70;99.90;;;;;;4998730;28;20128;-78
2023/05/10 07:01:13;;;;;;;13.68;3.78;;;14.70;99.90;;;;;;4997714;28;20096;-85
2023/05/10 07:03:39;;;;;;;10.68;4.00;;;14.90;99.90;;;;;;4960545;28;20058;-82
2023/05/10 07:06:06;;;;;;;13.13;4.63;;;14.70;99.90;;;;;;4945242;28;20055;-83
2023/05/10 07:08:33;;;;;;;10.18;4.55;;;14.70;99.90;;;;;;4978565;28;20050;-80
2023/05/10 07:11:03;;;;;;;10.15;4.28;;;14.70;99.90;;;;;;4976453;28;20081;-83
2023/05/10 07:13:32;;;;;;;10.77;4.20;;;14.70;99.90;;;;;;4976565;28;20054;-86
2023/05/10 07:15:58;;;;;;;9.90;4.10;;;14.70;99.90;;;;;;4977749;28;20394;-84
2023/05/10 07:18:25;;;;;;;12.15;4.68;;;14.60;99.90;;;;;;4978279;28;20050;-82
2023/05/10 07:20:51;;;;;;;10.85;4.43;;;14.50;99.90;;;;;;4978647;28;20402;-83
2023/05/10 07:23:19;;;;;;;10.47;4.37;;;14.60;99.90;;;;;;4977020;28;20050;-82
2023/05/10 07:25:51;;;;;;;12.15;4.88;;;14.60;99.90;;;;;;4960477;28;20057;-86
2023/05/10 07:28:17;;;;;;;10.30;4.47;;;14.60;99.90;;;;;;4976364;28;20062;-84
2023/05/10 07:30:43;;;;;;;8.70;4.15;;;14.70;99.90;;;;;;4976394;28;20101;-85
2023/05/10 07:33:10;;;;;;;10.48;4.20;;;14.80;99.90;;;;;;4977377;28;20057;-85
2023/05/10 07:35:36;;;;;;;;;;;14.90;99.90;;;;;;4976453;28;20051;-83
2023/05/10 07:38:02;;;;;;;8.50;3.53;;;14.90;99.90;;;;;;4976264;28;19949;-83
2023/05/10 07:40:28;;;;;;;10.80;4.00;;;14.90;99.90;;;;;;4977754;28;20101;-86
2023/05/10 07:42:54;;;;;;;11.95;3.70;;;15.00;99.90;;;;;;4975847;28;20055;-83
2023/05/10 07:45:20;;;;;;;8.18;3.10;;;14.90;99.90;;;;;;4976721;28;20105;-82
2023/05/10 07:47:45;;;;;;;10.35;3.88;;;14.90;99.90;;;;;;4959142;28;20041;-85
2023/05/10 07:50:11;;;;;;;8.43;3.55;;;14.90;99.90;;;;;;4977238;28;20102;-81
2023/05/10 07:52:37;;;;;;;7.60;3.63;;;14.80;99.90;;;;;;4977224;28;20126;-83
2023/05/10 07:55:03;;;;;;;9.80;3.80;;;14.90;99.90;;;;;;4975636;28;20046;-82
2023/05/10 07:57:28;;;;;;;9.45;4.05;;;14.90;99.90;;;;;;4977151;28;20070;-82
2023/05/10 07:59:54;;;;;;;9.98;3.80;;;15.10;99.90;;;;;;4976798;28;20407;-87
2023/05/10 08:02:20;;;;;;;9.38;3.47;;;15.10;99.90;;;;;;4978371;28;20050;-83
2023/05/10 08:04:46;;;;;;;11.90;3.28;;;15.10;99.90;;;;;;4977205;28;20569;-83
2023/05/10 08:07:11;;;;;;;7.88;3.40;;;15.20;99.90;;;;;;4978019;28;20074;-82
2023/05/10 08:09:37;;;;;;;7.15;2.78;;;15.30;99.90;;;;;;4959832;28;20053;-84
2023/05/10 08:12:03;;;;;;;8.15;2.75;;;15.40;99.90;;;;;;4976618;28;20102;-83
2023/05/10 08:14:29;;;;;;;7.82;2.58;;;15.30;99.90;;;;;;4959087;28;20082;-80
2023/05/10 08:16:56;;;;;;;5.80;2.08;;;15.40;99.90;;;;;;4977085;28;20050;-87
2023/05/10 08:19:22;;;;;;;5.30;1.83;;;15.70;99.90;;;;;;4977218;28;20051;-79
2023/05/10 08:21:48;;;;;;;6.72;1.50;;;15.90;99.90;;;;;;4974990;28;20086;-84
2023/05/10 08:24:14;;;;;;;5.35;1.60;;;16.10;99.90;;;;;;4975925;28;20089;-83
2023/05/10 08:26:40;;;;;;;4.03;1.65;;;16.20;99.90;;;;;;4974905;28;20452;-86
2023/05/10 08:29:05;;;;;;;5.05;1.77;;;16.30;99.90;;;;;;4976197;28;20051;-84
2023/05/10 08:31:31;;;;;;;4.70;1.90;;;16.50;99.90;;;;;;4975374;28;20050;-85
2023/05/10 08:33:57;;;;;;;7.30;1.30;;;16.40;99.90;;;;;;4975894;28;20082;-84
2023/05/10 08:36:24;;;;;;;4.47;1.70;;;16.40;99.90;;;;;;4974858;28;20046;-83
2023/05/10 08:38:53;;;;;;;;;;;16.30;99.90;;;;;;4975043;28;20410;-85
2023/05/10 08:41:25;;;;;;;4.38;2.03;;;16.40;99.90;;;;;;4975780;28;19929;-81
2023/05/10 08:43:55;;;;;;;6.85;2.00;;;16.40;99.90;;;;;;4976666;28;20129;-82
2023/05/10 08:46:22;;;;;;;5.00;2.05;;;16.40;99.90;;;;;;4975876;28;20502;-82
2023/05/10 08:48:50;;;;;;;3.67;1.45;;;16.40;99.90;;;;;;4974494;28;20047;-82
2023/05/10 08:51:22;;;;;;;4.88;1.60;;;16.40;99.90;;;;;;4975574;28;20390;-84
2023/05/10 08:53:48;;;;;;;5.00;1.23;;;16.30;99.90;;;;;;4974395;28;20047;-80
2023/05/10 08:56:15;;;;;;;5.70;1.42;;;16.30;99.90;;;;;;4975543;28;20058;-82
2023/05/10 08:58:41;;;;;;;4.30;1.77;;;16.20;99.90;;;;;;4975113;28;20057;-81
2023/05/10 09:01:08;;;;;;;4.57;1.40;;;16.20;99.90;;;;;;4975870;28;20058;-84
2023/05/10 09:03:35;;;;;;;;;;;16.30;99.90;;;;;;4974636;28;20126;-81
2023/05/10 09:06:01;;;;;;;6.00;1.58;;;16.30;99.90;;;;;;4958502;28;20007;-81
2023/05/10 09:08:27;;;;;;;5.67;1.70;;;16.30;99.90;;;;;;4974409;28;20502;-79
2023/05/10 09:10:54;;;;;;;2.67;1.10;;;16.30;99.90;;;;;;4958432;28;20089;-75
2023/05/10 09:13:23;;;;;;;3.70;1.38;;;16.40;99.90;;;;;;4973971;28;20045;-86
2023/05/10 09:15:49;;;;;;;5.28;1.58;;;16.50;99.90;;;;;;4958557;28;20082;-82
2023/05/10 09:18:15;;;;;;;3.60;1.17;;;16.50;99.90;;;;;;4958329;28;20449;-81
2023/05/10 09:20:42;;;;;;;2.90;1.20;;;16.50;99.90;;;;;;4975343;28;20054;-86
2023/05/10 09:23:08;;;;;;;6.57;1.63;;;16.40;99.90;;;;;;4942309;28;20145;-80
2023/05/10 09:25:34;;;;;;;4.55;1.80;;;16.40;99.90;;;;;;4975468;28;20097;-81
2023/05/10 09:28:00;;;;;;;4.90;1.88;;;16.40;99.90;;;;;;4974107;28;20109;-79
2023/05/10 09:30:28;;;;;;;5.57;1.70;;;16.40;99.90;;;;;;4944840;28;20050;-83
2023/05/10 09:32:55;;;;;;;5.15;1.58;;;16.50;99.90;;;;;;4974517;28;20047;-82
2023/05/10 09:35:23;;;;;;;4.75;1.50;;;16.40;99.90;;;;;;4975158;28;20371;-82
2023/05/10 09:37:51;;;;;;;5.32;1.83;;;16.50;99.90;;;;;;4974500;28;20043;-83
2023/05/10 09:40:22;;;;;;;5.60;2.22;;;16.50;99.90;;;;;;4975680;28;20047;-83
2023/05/10 09:42:53;;;;;;;6.18;2.08;;;16.40;99.90;;;;;;4974497;28;20220;-86
2023/05/10 09:45:19;;;;;;;6.43;1.92;;;16.40;99.90;;;;;;4975083;28;20050;-81
2023/05/10 09:47:45;;;;;;;5.70;2.00;;;16.60;99.90;;;;;;4957760;28;20190;-83
2023/05/10 09:50:12;;;;;;;6.38;2.70;;;16.70;99.90;;;;;;4975282;28;20062;-83
2023/05/10 09:52:52;;;;;;;6.03;2.47;;;16.60;99.90;;;;;;4957563;28;20050;-82
2023/05/10 09:55:23;;;;;;;8.27;3.13;;;16.70;99.90;;;;;;4976403;28;20050;-81
2023/05/10 09:57:59;;;;;;;6.22;3.03;;;16.70;99.90;;;;;;4978847;28;20051;-81
2023/05/10 10:00:25;;;;;;;7.28;3.13;;;16.80;99.90;;;;;;4977431;28;20368;-81
2023/05/10 10:02:59;;;;;;;7.03;2.95;;;16.60;99.90;;;;;;4985843;28;20089;-78
2023/05/10 10:05:33;;;;;;;6.38;2.88;;;16.60;99.90;;;;;;4978775;28;20108;-82
2023/05/10 10:07:59;;;;;;;8.98;3.60;;;16.60;99.90;;;;;;4980385;28;20143;-80
2023/05/10 10:10:26;;;;;;;9.32;4.07;;;16.60;99.90;;;;;;5000761;28;20108;-84
2023/05/10 10:12:53;;;;;;;6.93;3.17;;;16.60;99.90;;;;;;4998617;28;20054;-80
2023/05/10 10:15:20;;;;;;;7.97;3.80;;;16.70;99.90;;;;;;4998071;28;20057;-85
2023/05/10 10:17:47;;;;;;;7.75;4.00;;;16.70;99.90;;;;;;4998604;28;20142;-80
2023/05/10 10:20:14;;;;;;;8.90;3.95;;;16.80;99.90;;;;;;4997696;28;20124;-79
2023/05/10 10:22:40;;;;;;;;;;;16.80;99.90;;;;;;4998715;28;20047;-83
2023/05/10 10:25:07;;;;;;;11.07;4.20;;;16.70;99.90;;;;;;4997852;28;20393;-84
2023/05/10 10:27:51;;;;;;;8.32;4.82;;;16.70;99.90;;;;;;4997508;28;20157;-85
2023/05/10 10:30:43;;;;;;;10.52;4.72;;;16.60;99.90;;;;;;4997579;28;20168;-88
2023/05/10 10:33:43;;;;;;;11.32;4.75;;;16.60;99.90;;;;;;4980964;28;20050;-83
2023/05/10 10:36:10;;;;;;;10.27;5.30;;;16.60;99.90;;;;;;4998049;28;20378;-84
2023/05/10 10:38:48;;;;;;;11.25;5.13;;;16.60;99.90;;;;;;4980139;28;20052;-83
2023/05/10 10:41:31;;;;;;;11.25;6.13;;;16.60;99.90;;;;;;4980129;28;20086;-81
2023/05/10 10:44:22;;;;;;;8.82;4.72;;;16.60;99.90;;;;;;4997989;28;20054;-79
2023/05/10 10:47:08;;;;;;;12.20;5.50;;;16.50;99.90;;;;;;4997716;28;20375;-84
2023/05/10 10:49:42;;;;;;;11.05;5.50;;;16.40;99.90;;;;;;4964611;28;20050;-84
2023/05/10 10:52:36;;;;;;;10.00;4.68;;;16.50;99.90;;;;;;4998076;28;20049;-82
2023/05/10 10:55:08;;;;;;;10.40;5.38;;;16.60;99.90;;;;;;4951232;28;20065;-83
2023/05/10 10:57:40;;;;;;;10.32;4.90;;;16.80;99.90;;;;;;5002768;28;20043;-81
2023/05/10 11:00:24;;;;;;;9.18;4.85;;;16.90;99.90;;;;;;4984838;28;20141;-81
2023/05/10 11:03:16;;;;;;;9.07;5.00;;;16.90;99.90;;;;;;4968504;28;20203;-81
2023/05/10 11:05:50;;;;;;;10.10;4.95;;;17.00;99.90;;;;;;5000050;28;20046;-83
2023/05/10 11:08:34;;;;;;;9.93;4.95;;;17.20;99.90;;;;;;5001944;28;20046;-85
2023/05/10 11:10:59;;;;;;;9.10;5.00;;;17.30;99.90;;;;;;5001447;28;20121;-83
2023/05/10 11:13:37;;;;;;;12.18;5.72;;;17.40;99.90;;;;;;4998814;28;20466;-86
2023/05/10 11:16:29;;;;;;;9.60;4.78;;;17.20;99.90;;;;;;5000017;28;20039;-84
2023/05/10 11:19:04;;;;;;;10.50;5.18;;;17.20;99.90;;;;;;4998817;28;20109;-84
2023/05/10 11:21:31;;;;;;;10.63;5.22;;;17.20;99.90;;;;;;4998679;28;20398;-86
2023/05/10 11:23:58;;;;;;;10.02;5.53;;;17.30;99.90;;;;;;4982032;28;20046;-88
2023/05/10 11:26:35;;;;;;;7.70;4.80;;;17.30;99.90;;;;;;4999189;28;20072;-83
2023/05/10 11:29:02;;;;;;;9.18;5.03;;;17.40;99.90;;;;;;4997105;28;20046;-85
2023/05/10 11:31:28;;;;;;;9.82;5.13;;;17.50;99.90;;;;;;4997609;28;20402;-81
2023/05/10 11:34:01;;;;;;;10.75;5.60;;;17.50;99.90;;;;;;4997209;28;20046;-87
2023/05/10 11:36:28;;;;;;;9.30;5.40;;;17.40;99.90;;;;;;4997774;28;20050;-86
2023/05/10 11:38:55;;;;;;;11.52;5.80;;;17.40;99.90;;;;;;4980497;28;20053;-84
2023/05/10 11:41:22;;;;;;;10.70;5.90;;;17.20;99.90;;;;;;4999886;28;20058;-82
2023/05/10 11:43:52;;;;;;;;;;;17.10;99.90;;;;;;4999365;28;20453;-87
2023/05/10 11:46:23;;;;;;;7.80;4.30;;;17.00;99.90;;;;;;4998989;28;19921;-81
2023/05/10 11:48:51;;;;;;;12.02;5.78;;;17.00;99.90;;;;;;4997345;28;20105;-87
2023/05/10 11:51:24;;;;;;;9.85;5.15;;;17.00;99.90;;;;;;4979722;28;20050;-84
2023/05/10 11:53:52;;;;;;;10.00;5.90;;;17.00;99.90;;;;;;4996932;28;20372;-88
2023/05/10 11:56:18;;;;;;;10.75;5.32;;;17.10;99.90;;;;;;4979694;28;20046;-87
2023/05/10 11:58:44;;;;;;;10.68;6.00;;;17.10;99.90;;;;;;4997121;28;20426;-86
2023/05/10 12:01:11;;;;;;;12.73;6.13;;;17.10;99.90;;;;;;4978860;28;20046;-85
2023/05/10 12:03:37;;;;;;;11.52;5.53;;;17.20;99.90;;;;;;4978873;28;20104;-86
2023/05/10 12:06:04;;;;;;;11.23;5.85;;;17.20;99.90;;;;;;4963323;28;20546;-87
2023/05/10 12:08:30;;;;;;;9.02;5.45;;;17.20;99.90;;;;;;4996359;28;20042;-85
2023/05/10 12:11:13;;;;;;;10.98;6.05;;;17.30;99.90;;;;;;4996019;28;20050;-88
2023/05/10 12:13:47;;;;;;;13.45;6.25;;;16.80;99.90;;;;;;4948654;28;20054;-79
2023/05/10 12:16:17;;;;;;;8.70;5.03;;;17.00;99.90;;;;;;4997060;28;20050;-89
2023/05/10 12:18:43;;;;;;;8.70;4.70;;;17.20;99.90;;;;;;4997750;28;20360;-84
2023/05/10 12:21:12;;;;;;;8.93;3.40;;;17.20;99.90;;;;;;4980935;28;20062;-85
2023/05/10 12:23:39;;;;;;;9.50;4.57;;;17.30;99.90;;;;;;4981899;28;20057;-83
2023/05/10 12:26:05;;;;;;;8.45;4.50;;;17.30;99.90;;;;;;5002533;28;20046;-84
2023/05/10 12:28:32;;;;;;;9.63;4.28;;;17.10;99.90;;;;;;4984010;28;20050;-84
2023/05/10 12:31:02;;;;;;;9.75;4.28;;;17.10;99.90;;;;;;4981224;28;20104;-85
2023/05/10 12:33:36;;;;;;;7.25;3.53;;;17.00;99.90;;;;;;4979211;28;20056;-85
2023/05/10 12:36:02;;;;;;;9.15;3.78;;;17.10;99.90;;;;;;4979355;28;20061;-85
2023/05/10 12:38:37;;;;;;;6.10;2.63;;;17.00;99.90;;;;;;4979011;28;20050;-87
2023/05/10 12:41:09;;;;;;;7.10;3.30;;;17.00;99.90;;;;;;4979399;28;20046;-84
2023/05/10 12:43:35;;;;;;;6.50;3.53;;;17.00;99.90;;;;;;4996101;28;20460;-86
2023/05/10 12:46:09;;;;;;;8.00;4.10;;;17.00;99.90;;;;;;4978526;28;20050;-86
2023/05/10 12:48:36;;;;;;;12.15;5.65;;;17.10;99.90;;;;;;4995440;28;20049;-88
2023/05/10 12:51:09;;;;;;;12.52;5.40;;;17.30;99.90;;;;;;4996136;28;20125;-88
2023/05/10 12:53:36;;;;;;;11.90;4.65;;;17.40;99.90;;;;;;4978280;28;20409;-83
2023/05/10 12:56:02;;;;;;;9.13;5.25;;;17.60;99.90;;;;;;4996458;28;20070;-83